Time;durP1;ratioP1;P1;durP2;ratioP2;P2;SDS_P1;SDS_P2;PMS_P1;PMS_P2;Temp;Humidity;BMP_temperature;BMP_pressure;BME280_temperature;BME280_humidity;BME280_pressure;Samples;Min_cycle;Max_cycle;Signal;HPM_P1;HPM_P2
2022/11/18 00:01:12;;;;;;;12.53;9.30;;;2.20;99.90;;;;;;8375435;28;20487;-79
2022/11/18 00:05:13;;;;;;;16.63;10.27;;;2.10;99.90;;;;;;8371373;28;20193;-79
2022/11/18 00:09:13;;;;;;;26.63;12.23;;;2.10;99.90;;;;;;8369080;28;20293;-80
2022/11/18 00:17:34;;;;;;;23.50;12.43;;;2.20;99.90;;;;;;8370960;28;20321;-79
2022/11/18 00:21:35;;;;;;;28.87;13.20;;;2.10;99.90;;;;;;8375461;28;20183;-79
2022/11/18 00:25:36;;;;;;;22.20;12.83;;;2.10;99.90;;;;;;8370783;28;20186;-80
2022/11/18 00:29:37;;;;;;;20.47;11.90;;;2.10;99.90;;;;;;8366072;28;20312;-80
2022/11/18 00:33:38;;;;;;;29.60;13.47;;;2.00;99.90;;;;;;8368376;28;20182;-80
2022/11/18 00:37:39;;;;;;;17.90;10.60;;;2.00;99.90;;;;;;8371438;28;20189;-79
2022/11/18 00:46:00;;;;;;;17.03;10.83;;;2.00;99.90;;;;;;8370447;28;20276;-80
2022/11/18 00:50:00;;;;;;;33.40;14.77;;;2.00;99.90;;;;;;8374412;28;20211;-80
2022/11/18 00:54:02;;;;;;;24.90;12.83;;;2.00;99.90;;;;;;8366639;28;20166;-79
2022/11/18 00:58:03;;;;;;;20.77;11.50;;;2.00;99.90;;;;;;8369704;28;20201;-79
2022/11/18 01:02:04;;;;;;;15.07;10.00;;;2.00;99.90;;;;;;8367474;28;20188;-79
2022/11/18 01:06:04;;;;;;;22.53;13.20;;;2.00;99.90;;;;;;8368407;28;20201;-79
2022/11/18 01:10:05;;;;;;;20.73;11.20;;;2.00;99.90;;;;;;8373548;28;20233;-79
2022/11/18 01:14:06;;;;;;;22.73;12.60;;;2.00;99.90;;;;;;8374651;28;20178;-79
2022/11/18 01:18:08;;;;;;;19.00;11.50;;;2.00;99.90;;;;;;8375939;28;20268;-80
2022/11/18 01:22:09;;;;;;;29.97;15.17;;;2.00;99.90;;;;;;8367701;28;20174;-79
2022/11/18 01:26:12;;;;;;;35.27;16.73;;;2.00;99.90;;;;;;8373568;28;20184;-79
2022/11/18 01:30:15;;;;;;;18.33;11.23;;;2.10;99.90;;;;;;8378059;28;20220;-79
2022/11/18 01:34:16;;;;;;;26.80;14.47;;;2.00;99.90;;;;;;8371912;28;20249;-79
2022/11/18 01:38:17;;;;;;;14.73;10.07;;;2.00;99.90;;;;;;8373361;28;20185;-80
2022/11/18 01:42:18;;;;;;;25.97;13.33;;;2.00;99.90;;;;;;8374795;28;20270;-79
2022/11/18 01:46:20;;;;;;;21.93;13.13;;;2.00;99.90;;;;;;8370212;28;20215;-80
2022/11/18 01:50:23;;;;;;;17.93;12.50;;;2.00;99.90;;;;;;8384140;28;20213;-79
2022/11/18 01:54:34;;;;;;;18.00;11.87;;;2.00;99.90;;;;;;8368830;28;20190;-80
2022/11/18 01:58:47;;;;;;;21.80;12.00;;;2.00;99.90;;;;;;8385973;28;20205;-80
2022/11/18 02:02:48;;;;;;;16.23;11.97;;;2.00;99.90;;;;;;8368806;28;20188;-79
2022/11/18 02:06:50;;;;;;;16.77;10.57;;;1.90;99.90;;;;;;8373036;28;20195;-79
2022/11/18 02:10:51;;;;;;;21.33;12.07;;;1.90;99.90;;;;;;8379228;28;20201;-79
2022/11/18 02:14:52;;;;;;;17.90;10.83;;;1.90;99.90;;;;;;8378069;28;20208;-79
2022/11/18 02:18:59;;;;;;;15.33;10.70;;;2.00;99.90;;;;;;8378927;28;20185;-79
2022/11/18 02:23:05;;;;;;;16.53;11.40;;;1.90;99.90;;;;;;8376206;28;20182;-79
2022/11/18 02:27:18;;;;;;;18.43;11.57;;;1.90;99.90;;;;;;8370019;28;20194;-79
2022/11/18 02:31:43;;;;;;;15.97;11.77;;;1.90;99.90;;;;;;8366645;28;20518;-79
2022/11/18 02:35:55;;;;;;;19.60;12.27;;;1.90;99.90;;;;;;8378373;28;20188;-79
2022/11/18 02:40:10;;;;;;;22.33;12.83;;;1.90;99.90;;;;;;8364929;28;20281;-80
2022/11/18 02:44:14;;;;;;;21.70;14.27;;;1.80;99.90;;;;;;8372444;28;20185;-79
2022/11/18 02:48:18;;;;;;;17.23;12.00;;;1.80;99.90;;;;;;8372947;28;20243;-80
2022/11/18 02:52:19;;;;;;;19.10;12.23;;;1.70;99.90;;;;;;8376633;28;20242;-79
2022/11/18 02:56:22;;;;;;;20.10;12.77;;;1.70;99.90;;;;;;8367934;28;20181;-79
2022/11/18 03:00:23;;;;;;;24.27;13.80;;;1.70;99.90;;;;;;8368710;28;20250;-80
2022/11/18 03:04:26;;;;;;;21.13;12.63;;;1.70;99.90;;;;;;8377475;28;20185;-79
2022/11/18 03:08:38;;;;;;;18.33;12.67;;;1.60;99.90;;;;;;8374766;28;20347;-80
2022/11/18 03:12:45;;;;;;;19.87;13.23;;;1.60;99.90;;;;;;8377329;28;20252;-80
2022/11/18 03:16:59;;;;;;;50.50;27.03;;;1.60;99.90;;;;;;8374540;28;20178;-80
2022/11/18 03:21:09;;;;;;;36.97;20.97;;;1.60;99.90;;;;;;8366372;28;20177;-79
2022/11/18 03:25:27;;;;;;;34.73;18.13;;;1.60;99.90;;;;;;8374300;28;20182;-80
2022/11/18 03:29:35;;;;;;;25.37;13.67;;;1.50;99.90;;;;;;8371917;28;20528;-79
2022/11/18 03:33:42;;;;;;;22.23;14.50;;;1.50;99.90;;;;;;8375208;28;20288;-80
2022/11/18 03:37:44;;;;;;;19.13;12.47;;;1.50;99.90;;;;;;8368363;28;20276;-79
2022/11/18 03:41:58;;;;;;;20.80;13.40;;;1.50;99.90;;;;;;8370150;28;20209;-79
2022/11/18 03:46:14;;;;;;;20.70;14.10;;;1.40;99.90;;;;;;8369532;28;20464;-79
2022/11/18 03:50:20;;;;;;;19.03;13.60;;;1.40;99.90;;;;;;8372817;28;20312;-79
2022/11/18 03:54:27;;;;;;;18.83;12.47;;;1.40;99.90;;;;;;8371864;28;20204;-80
2022/11/18 03:59:06;;;;;;;23.97;14.13;;;1.50;99.90;;;;;;8367726;28;20213;-79
2022/11/18 04:03:07;;;;;;;22.57;14.57;;;1.40;99.90;;;;;;8361681;28;20201;-79
2022/11/18 04:07:43;;;;;;;22.53;13.40;;;1.40;99.90;;;;;;8366666;28;20218;-79
2022/11/18 04:12:04;;;;;;;20.97;13.57;;;1.40;99.90;;;;;;8360904;28;20201;-79
2022/11/18 04:16:07;;;;;;;22.50;13.80;;;1.40;99.90;;;;;;8366909;28;20185;-79
2022/11/18 04:20:16;;;;;;;24.27;14.03;;;1.40;99.90;;;;;;8367091;28;20189;-79
2022/11/18 04:24:17;;;;;;;21.70;13.77;;;1.30;99.90;;;;;;8362093;28;20190;-79
2022/11/18 04:28:18;;;;;;;22.20;14.10;;;1.30;99.90;;;;;;8367600;28;21083;-79
2022/11/18 04:32:19;;;;;;;17.97;12.30;;;1.30;99.90;;;;;;8369185;28;20192;-79
2022/11/18 04:36:20;;;;;;;24.50;14.40;;;1.20;99.90;;;;;;8373050;28;20304;-79
2022/11/18 04:40:21;;;;;;;18.63;13.03;;;1.20;99.90;;;;;;8366149;28;20185;-78
2022/11/18 04:44:27;;;;;;;25.13;14.07;;;1.10;99.90;;;;;;8374227;28;20303;-79
2022/11/18 04:48:28;;;;;;;25.40;14.73;;;1.10;99.90;;;;;;8373853;28;20295;-79
2022/11/18 04:52:28;;;;;;;20.67;13.63;;;1.10;99.90;;;;;;8364608;28;20185;-78
2022/11/18 04:56:29;;;;;;;24.80;14.40;;;1.10;99.90;;;;;;8364562;28;20212;-79
2022/11/18 05:00:30;;;;;;;23.13;13.83;;;1.00;99.90;;;;;;8368525;28;20618;-79
2022/11/18 05:04:33;;;;;;;24.07;15.27;;;0.90;99.90;;;;;;8365817;28;20221;-79
2022/11/18 05:08:34;;;;;;;25.23;16.33;;;0.90;99.90;;;;;;8369831;28;20210;-79
2022/11/18 05:12:47;;;;;;;28.67;17.07;;;0.90;99.90;;;;;;8372958;28;20208;-79
2022/11/18 05:16:48;;;;;;;24.63;15.40;;;0.80;99.90;;;;;;8375979;28;20178;-79
2022/11/18 05:20:49;;;;;;;24.37;15.40;;;0.80;99.90;;;;;;8364714;28;20194;-79
2022/11/18 05:24:49;;;;;;;23.63;15.10;;;0.70;99.90;;;;;;8372707;28;20193;-79
2022/11/18 05:28:50;;;;;;;24.93;16.23;;;0.70;99.90;;;;;;8364413;28;20224;-79
2022/11/18 05:32:51;;;;;;;23.73;15.40;;;0.70;99.90;;;;;;8372948;28;20205;-79
2022/11/18 05:36:52;;;;;;;23.90;16.43;;;0.70;99.90;;;;;;8362814;28;20269;-79
2022/11/18 05:40:53;;;;;;;25.80;17.23;;;0.60;99.90;;;;;;8373443;28;20216;-78
2022/11/18 05:44:54;;;;;;;31.77;18.13;;;0.50;99.90;;;;;;8362306;28;20210;-79
2022/11/18 05:48:55;;;;;;;26.17;16.10;;;0.50;99.90;;;;;;8363986;28;20209;-79
2022/11/18 05:52:56;;;;;;;24.40;16.17;;;0.40;99.90;;;;;;8377122;28;20216;-79
2022/11/18 05:56:57;;;;;;;26.70;17.70;;;0.30;99.90;;;;;;8381057;28;20198;-78
2022/11/18 06:01:03;;;;;;;39.57;21.53;;;0.30;99.90;;;;;;8375023;28;20196;-79
2022/11/18 06:05:04;;;;;;;31.90;19.77;;;0.20;99.90;;;;;;8373638;28;20209;-80
2022/11/18 06:09:07;;;;;;;45.83;24.83;;;0.10;99.90;;;;;;8373992;28;20605;-80
2022/11/18 06:13:13;;;;;;;39.83;23.73;;;0.00;99.90;;;;;;8381716;28;20208;-80
2022/11/18 06:17:23;;;;;;;108.37;41.23;;;-0.10;99.90;;;;;;8371130;28;20180;-79
2022/11/18 06:21:24;;;;;;;70.87;31.23;;;-0.10;99.90;;;;;;8380765;28;20256;-80
2022/11/18 06:25:24;;;;;;;35.10;22.23;;;-0.20;99.90;;;;;;8377525;28;20193;-79
2022/11/18 06:29:26;;;;;;;41.23;24.13;;;-0.20;99.90;;;;;;8376281;28;20238;-79
2022/11/18 06:33:26;;;;;;;38.37;22.93;;;-0.20;99.90;;;;;;8368846;28;20182;-79
2022/11/18 06:37:27;;;;;;;37.77;23.10;;;-0.20;99.90;;;;;;8369986;28;20184;-79
2022/11/18 06:41:28;;;;;;;38.50;24.23;;;-0.20;99.90;;;;;;8371411;28;20182;-79
2022/11/18 06:45:29;;;;;;;37.07;23.47;;;-0.30;99.90;;;;;;8369382;28;20185;-79
2022/11/18 06:49:30;;;;;;;39.37;24.77;;;-0.30;99.90;;;;;;8373705;28;20230;-79
2022/11/18 06:53:30;;;;;;;48.53;26.00;;;-0.30;99.90;;;;;;8373110;28;20272;-79
2022/11/18 06:57:31;;;;;;;45.97;27.93;;;-0.30;99.90;;;;;;8369337;28;20202;-80
2022/11/18 07:01:38;;;;;;;45.50;26.93;;;-0.30;99.90;;;;;;8366098;28;20311;-80
2022/11/18 07:05:38;;;;;;;42.80;26.53;;;-0.40;99.90;;;;;;8366882;28;20193;-80
2022/11/18 07:09:39;;;;;;;42.83;25.63;;;-0.40;99.90;;;;;;8370305;28;20222;-79
2022/11/18 07:13:41;;;;;;;47.63;27.20;;;-0.50;99.90;;;;;;8374226;28;20235;-79
2022/11/18 07:17:41;;;;;;;58.20;34.30;;;-0.50;99.90;;;;;;8370813;28;20196;-80
2022/11/18 07:21:43;;;;;;;49.87;29.07;;;-0.50;99.90;;;;;;8371838;28;20190;-80
2022/11/18 07:25:43;;;;;;;54.63;30.73;;;-0.50;99.90;;;;;;8371704;28;20182;-80
2022/11/18 07:29:44;;;;;;;64.03;32.60;;;-0.60;99.90;;;;;;8373915;28;20214;-79
2022/11/18 07:33:46;;;;;;;49.90;28.83;;;-0.60;99.90;;;;;;8367905;28;20327;-79
2022/11/18 07:37:47;;;;;;;46.47;27.73;;;-0.60;99.90;;;;;;8367188;28;20185;-79
2022/11/18 07:41:48;;;;;;;48.73;28.73;;;-0.50;99.90;;;;;;8372284;28;20257;-79
2022/11/18 07:45:48;;;;;;;43.27;25.73;;;-0.60;99.90;;;;;;8368887;28;20193;-80
2022/11/18 07:49:49;;;;;;;45.13;25.83;;;-0.60;99.90;;;;;;8367668;28;20269;-79
2022/11/18 07:53:50;;;;;;;45.23;26.53;;;-0.60;99.90;;;;;;8367580;28;20265;-79
2022/11/18 07:57:51;;;;;;;42.73;26.03;;;-0.70;99.90;;;;;;8366828;28;20296;-79
2022/11/18 08:01:51;;;;;;;41.67;24.87;;;-0.70;99.90;;;;;;8376080;28;20187;-79
2022/11/18 08:06:00;;;;;;;46.67;25.83;;;-0.70;99.90;;;;;;8373039;28;20188;-80
2022/11/18 08:10:02;;;;;;;40.70;23.83;;;-0.60;99.90;;;;;;8373995;28;20247;-80
2022/11/18 08:14:03;;;;;;;45.80;25.60;;;-0.60;99.90;;;;;;8370215;28;20184;-80
2022/11/18 08:18:03;;;;;;;53.57;29.40;;;-0.60;99.90;;;;;;8375244;28;20231;-79
2022/11/18 08:22:04;;;;;;;44.43;25.17;;;-0.70;99.90;;;;;;8374214;28;20273;-79
2022/11/18 08:26:13;;;;;;;46.27;26.47;;;-0.70;99.90;;;;;;8365551;28;20207;-79
2022/11/18 08:30:14;;;;;;;43.33;25.10;;;-0.60;99.90;;;;;;8367002;28;20208;-79
2022/11/18 08:34:15;;;;;;;44.83;25.27;;;-0.60;99.90;;;;;;8374143;28;20184;-79
2022/11/18 08:38:16;;;;;;;45.70;25.70;;;-0.60;99.90;;;;;;8370140;28;20220;-79
2022/11/18 08:42:20;;;;;;;41.80;23.80;;;-0.60;99.90;;;;;;8365162;28;20226;-80
2022/11/18 08:46:21;;;;;;;45.07;24.67;;;-0.50;99.90;;;;;;8366300;28;20261;-79
2022/11/18 08:50:22;;;;;;;42.83;24.63;;;-0.50;99.90;;;;;;8373910;28;20219;-79
2022/11/18 08:54:23;;;;;;;56.37;28.93;;;-0.40;99.90;;;;;;8368792;28;20286;-79
2022/11/18 08:58:25;;;;;;;37.53;23.00;;;-0.40;99.90;;;;;;8372977;28;20250;-79
2022/11/18 09:02:26;;;;;;;49.33;27.00;;;-0.30;99.90;;;;;;8373551;28;20218;-79
2022/11/18 09:06:27;;;;;;;34.97;21.97;;;-0.30;99.90;;;;;;8373949;28;20277;-80
2022/11/18 09:10:28;;;;;;;41.50;24.50;;;-0.10;99.90;;;;;;8361981;28;20272;-79
2022/11/18 09:14:28;;;;;;;37.97;23.17;;;0.00;99.90;;;;;;8366723;28;20540;-79
2022/11/18 09:18:30;;;;;;;38.87;23.87;;;0.10;99.90;;;;;;8367034;28;20197;-79
2022/11/18 09:22:30;;;;;;;39.40;22.60;;;0.10;99.90;;;;;;8363791;28;20184;-79
2022/11/18 09:26:31;;;;;;;35.33;21.30;;;0.10;99.90;;;;;;8366674;28;20254;-79
2022/11/18 09:30:32;;;;;;;36.97;21.93;;;0.10;99.90;;;;;;8371420;28;20279;-79
2022/11/18 09:34:34;;;;;;;37.10;21.83;;;0.00;99.90;;;;;;8372211;28;20192;-79
2022/11/18 09:38:35;;;;;;;34.37;20.67;;;0.00;99.90;;;;;;8375015;28;20189;-79
2022/11/18 09:43:06;;;;;;;37.47;21.57;;;-0.10;99.90;;;;;;8373231;28;20296;-79
2022/11/18 09:47:27;;;;;;;34.10;22.10;;;-0.10;99.90;;;;;;8374483;28;20209;-79
2022/11/18 09:51:33;;;;;;;35.63;22.50;;;-0.20;99.90;;;;;;8375239;28;20196;-79
2022/11/18 09:55:38;;;;;;;37.83;22.90;;;-0.20;99.90;;;;;;8379858;28;20188;-79
2022/11/18 09:59:39;;;;;;;39.30;24.93;;;-0.20;99.90;;;;;;8368115;28;20210;-80
2022/11/18 10:03:40;;;;;;;34.63;21.30;;;-0.30;99.90;;;;;;8372938;28;20201;-79
2022/11/18 10:08:04;;;;;;;32.70;20.63;;;-0.30;99.90;;;;;;8374498;28;20182;-80
2022/11/18 10:12:33;;;;;;;44.77;25.70;;;-0.30;99.90;;;;;;8384830;28;20218;-79
2022/11/18 10:16:52;;;;;;;39.33;22.20;;;-0.30;99.90;;;;;;8368063;28;20188;-80
2022/11/18 10:21:22;;;;;;;34.10;21.40;;;-0.40;99.90;;;;;;8367503;28;20181;-80
2022/11/18 10:25:23;;;;;;;31.13;19.27;;;-0.40;99.90;;;;;;8369852;28;20276;-80
2022/11/18 10:29:24;;;;;;;33.37;21.27;;;-0.40;99.90;;;;;;8371170;28;20216;-79
2022/11/18 10:33:27;;;;;;;30.40;18.57;;;-0.30;99.90;;;;;;8377396;28;20362;-80
2022/11/18 10:37:35;;;;;;;33.53;19.13;;;-0.30;99.90;;;;;;8373342;28;20275;-80
2022/11/18 10:41:40;;;;;;;43.80;25.83;;;-0.30;99.90;;;;;;8369147;28;20203;-79
2022/11/18 10:45:41;;;;;;;28.50;17.60;;;-0.30;92.60;;;;;;8386729;28;20184;-80
2022/11/18 10:49:42;;;;;;;23.23;16.27;;;-0.30;1.00;;;;;;8370378;28;20233;-79
2022/11/18 10:53:43;;;;;;;24.10;15.97;;;-0.40;1.00;;;;;;8371062;28;21470;-79
2022/11/18 10:57:44;;;;;;;29.57;18.07;;;-0.40;1.00;;;;;;8367852;28;20203;-79
2022/11/18 11:02:00;;;;;;;24.87;17.33;;;-0.40;1.00;;;;;;8370329;28;20190;-79
2022/11/18 11:06:25;;;;;;;24.57;17.13;;;-0.30;1.00;;;;;;8376740;28;20171;-80
2022/11/18 11:10:25;;;;;;;25.90;16.20;;;-0.20;99.90;;;;;;8371400;28;20236;-80
2022/11/18 11:14:32;;;;;;;33.23;19.83;;;-0.20;99.90;;;;;;8373723;28;20178;-80
2022/11/18 11:18:40;;;;;;;32.20;19.20;;;-0.20;99.90;;;;;;8370864;28;20188;-80
2022/11/18 11:22:41;;;;;;;30.03;19.07;;;-0.10;99.90;;;;;;8374082;28;20287;-80
2022/11/18 11:26:45;;;;;;;26.87;17.73;;;-0.10;99.90;;;;;;8371229;28;20204;-80
2022/11/18 11:30:54;;;;;;;29.67;18.77;;;0.00;86.50;;;;;;8364465;28;20213;-79
2022/11/18 11:35:15;;;;;;;31.47;18.77;;;0.00;15.80;;;;;;8377770;28;20185;-80
2022/11/18 11:39:49;;;;;;;34.30;20.67;;;0.00;1.00;;;;;;8365401;28;20232;-80
2022/11/18 11:44:26;;;;;;;30.67;19.97;;;0.00;1.00;;;;;;8375904;28;20235;-80
2022/11/18 11:49:04;;;;;;;38.70;25.10;;;0.10;5.80;;;;;;8375822;28;20209;-79
2022/11/18 11:53:28;;;;;;;41.77;23.47;;;0.10;1.00;;;;;;8373905;28;20588;-79
2022/11/18 11:57:50;;;;;;;85.93;41.33;;;0.10;1.00;;;;;;8369214;28;20237;-80
2022/11/18 12:02:02;;;;;;;51.47;25.90;;;0.10;1.00;;;;;;8363203;28;20192;-80
2022/11/18 12:06:03;;;;;;;88.83;37.27;;;0.20;1.00;;;;;;8369494;28;20208;-81
2022/11/18 12:10:26;;;;;;;46.37;25.00;;;0.30;1.00;;;;;;8371848;28;20256;-81
2022/11/18 12:14:49;;;;;;;69.43;27.97;;;0.30;1.00;;;;;;8370299;28;20185;-81
2022/11/18 12:18:53;;;;;;;58.00;24.93;;;0.20;1.00;;;;;;8367678;28;20196;-81
2022/11/18 12:23:14;;;;;;;44.53;24.50;;;0.10;1.00;;;;;;8374649;28;20189;-81
2022/11/18 12:27:26;;;;;;;100.33;39.33;;;0.00;1.00;;;;;;8367906;28;20208;-81
2022/11/18 12:31:32;;;;;;;48.47;24.57;;;-0.10;1.00;;;;;;8372100;28;20216;-79
2022/11/18 12:35:33;;;;;;;103.87;38.70;;;-0.10;89.60;;;;;;8368206;28;20182;-79
2022/11/18 12:39:40;;;;;;;55.33;24.30;;;-0.10;76.40;;;;;;8370235;28;20185;-79
2022/11/18 12:43:47;;;;;;;229.10;85.63;;;-0.20;49.00;;;;;;8367201;28;20197;-79
2022/11/18 12:47:47;;;;;;;54.80;29.97;;;-0.20;99.90;;;;;;8365770;28;20224;-79
2022/11/18 12:51:50;;;;;;;67.23;29.43;;;-0.30;99.90;;;;;;8375574;28;20182;-79
2022/11/18 12:55:51;;;;;;;68.67;30.13;;;-0.30;99.90;;;;;;8368687;28;20194;-79
2022/11/18 12:59:53;;;;;;;42.87;22.03;;;-0.30;99.90;;;;;;8370339;28;20262;-79
2022/11/18 13:04:07;;;;;;;59.03;30.03;;;-0.40;99.90;;;;;;8378185;28;20187;-79
2022/11/18 13:08:12;;;;;;;40.77;23.00;;;-0.40;99.90;;;;;;8374349;28;20292;-80
2022/11/18 13:12:17;;;;;;;52.73;27.03;;;-0.40;99.90;;;;;;8370932;28;20218;-79
2022/11/18 13:20:42;;;;;;;30.80;19.40;;;-0.40;99.90;;;;;;8371834;28;20255;-79
2022/11/18 13:24:46;;;;;;;35.00;21.10;;;-0.40;99.90;;;;;;8379398;28;20216;-79
2022/11/18 13:28:58;;;;;;;30.40;17.27;;;-0.40;99.90;;;;;;8373954;28;20209;-79
2022/11/18 13:32:59;;;;;;;25.93;16.70;;;-0.40;99.90;;;;;;8376343;28;20178;-79
2022/11/18 13:37:00;;;;;;;27.73;17.80;;;-0.50;99.90;;;;;;8371166;28;20222;-79
2022/11/18 13:41:05;;;;;;;29.13;19.47;;;-0.60;99.90;;;;;;8374150;28;20196;-81
2022/11/18 13:45:12;;;;;;;26.90;17.93;;;-0.70;99.90;;;;;;8373252;28;20192;-79
2022/11/18 13:49:18;;;;;;;21.43;13.33;;;-0.80;1.00;;;;;;8368812;28;20216;-79
2022/11/18 13:53:32;;;;;;;24.67;14.87;;;-0.80;99.90;;;;;;8371947;28;20184;-79
2022/11/18 13:57:34;;;;;;;20.83;12.97;;;-0.90;99.90;;;;;;8378404;28;20200;-80
2022/11/18 14:01:36;;;;;;;22.67;12.63;;;-0.90;99.90;;;;;;8378784;28;20273;-80
2022/11/18 14:05:39;;;;;;;20.23;11.70;;;-1.00;99.90;;;;;;8394189;28;20180;-80
2022/11/18 14:09:52;;;;;;;16.40;10.83;;;-1.10;99.90;;;;;;8373864;28;20207;-79
2022/11/18 14:13:53;;;;;;;20.70;10.77;;;-1.10;28.30;;;;;;8358604;28;20194;-80
2022/11/18 14:17:59;;;;;;;17.27;11.27;;;-1.20;1.00;;;;;;8371788;28;20176;-79
2022/11/18 14:22:10;;;;;;;29.07;13.20;;;-1.10;1.00;;;;;;8373828;28;20214;-79
2022/11/18 14:26:11;;;;;;;23.10;12.60;;;-1.20;1.00;;;;;;8373852;28;20183;-80
2022/11/18 14:30:55;;;;;;;14.97;8.77;;;-1.20;13.70;;;;;;8373310;28;20222;-80
2022/11/18 14:34:59;;;;;;;14.27;9.33;;;-1.20;1.00;;;;;;8380428;28;20190;-80
2022/11/18 14:39:00;;;;;;;18.80;9.57;;;-1.20;1.00;;;;;;8370369;28;20188;-80
2022/11/18 14:43:01;;;;;;;20.23;11.37;;;-1.20;1.00;;;;;;8368849;28;20186;-80
2022/11/18 14:47:09;;;;;;;29.77;15.07;;;-1.20;1.00;;;;;;8367792;28;20203;-80
2022/11/18 14:51:14;;;;;;;15.77;8.47;;;-1.30;1.00;;;;;;8371540;28;20227;-79
2022/11/18 14:55:15;;;;;;;27.37;12.47;;;-1.20;1.00;;;;;;8372554;28;20188;-80
2022/11/18 14:59:18;;;;;;;17.10;9.93;;;-1.20;1.00;;;;;;8370174;28;20528;-80
2022/11/18 15:03:19;;;;;;;24.37;12.27;;;-1.20;1.00;;;;;;8372523;28;20266;-80
2022/11/18 15:07:20;;;;;;;27.07;13.33;;;-1.30;36.90;;;;;;8369288;28;20195;-80
2022/11/18 15:11:21;;;;;;;29.07;14.80;;;-1.20;8.70;;;;;;8378417;28;20213;-79
2022/11/18 15:15:22;;;;;;;30.10;14.60;;;-1.20;34.70;;;;;;8369585;28;20184;-79
2022/11/18 15:19:23;;;;;;;34.27;17.20;;;-1.20;1.00;;;;;;8375620;28;20215;-79
2022/11/18 15:23:24;;;;;;;102.77;50.57;;;-1.20;35.40;;;;;;8375853;28;20187;-79
2022/11/18 15:27:24;;;;;;;91.70;49.83;;;-1.20;40.70;;;;;;8373231;28;20224;-79
2022/11/18 15:31:25;;;;;;;72.33;39.97;;;-1.30;94.10;;;;;;8374316;28;20237;-79
2022/11/18 15:35:26;;;;;;;61.60;31.30;;;-1.30;99.90;;;;;;8370881;28;20264;-79
2022/11/18 15:39:27;;;;;;;85.93;49.33;;;-1.20;56.20;;;;;;8372646;28;20189;-79
2022/11/18 15:43:28;;;;;;;38.90;22.83;;;-1.20;99.90;;;;;;8365135;28;20195;-80
2022/11/18 15:47:29;;;;;;;51.47;26.17;;;-1.30;99.90;;;;;;8372276;28;20189;-80
2022/11/18 15:51:32;;;;;;;41.57;21.77;;;-1.30;99.90;;;;;;8377792;28;20219;-80
2022/11/18 15:55:32;;;;;;;67.23;30.77;;;-1.40;99.90;;;;;;8372249;28;20183;-80
2022/11/18 15:59:33;;;;;;;68.13;30.07;;;-1.40;99.90;;;;;;8369472;28;20222;-81
2022/11/18 16:03:34;;;;;;;108.77;51.87;;;-1.30;99.90;;;;;;8363424;28;20278;-79
2022/11/18 16:07:35;;;;;;;137.53;61.87;;;-1.30;99.90;;;;;;8367770;28;20199;-79
2022/11/18 16:15:56;;;;;;;32.63;17.00;;;-1.50;99.90;;;;;;8372215;28;20183;-80
2022/11/18 16:19:56;;;;;;;64.83;27.47;;;-1.80;99.90;;;;;;8376557;28;20183;-78
2022/11/18 16:23:59;;;;;;;86.17;36.50;;;-2.10;99.90;;;;;;8370231;28;20179;-80
2022/11/18 16:28:00;;;;;;;88.03;40.53;;;-2.40;99.90;;;;;;8374188;28;20222;-79
2022/11/18 16:32:01;;;;;;;67.73;34.83;;;-2.50;1.00;;;;;;8370857;28;20356;-80
2022/11/18 16:36:01;;;;;;;73.47;35.93;;;-2.60;1.00;;;;;;8367887;28;20187;-80
2022/11/18 16:40:03;;;;;;;66.67;34.47;;;-2.60;75.20;;;;;;8371092;28;20186;-80
2022/11/18 16:44:06;;;;;;;57.60;30.93;;;-2.50;99.90;;;;;;8376447;28;20182;-80
2022/11/18 16:48:07;;;;;;;49.57;24.80;;;-2.50;99.90;;;;;;8369917;28;20209;-77
2022/11/18 16:52:08;;;;;;;42.60;22.00;;;-2.40;99.90;;;;;;8370952;28;20333;-78
2022/11/18 16:56:08;;;;;;;37.93;20.47;;;-2.40;99.90;;;;;;8365629;28;20186;-78
2022/11/18 17:00:10;;;;;;;44.27;22.33;;;-2.30;99.90;;;;;;8364824;28;20189;-78
2022/11/18 17:04:11;;;;;;;37.70;19.93;;;-2.30;1.00;;;;;;8370878;28;20275;-79
2022/11/18 17:08:11;;;;;;;29.90;16.07;;;-2.30;1.00;;;;;;8364973;28;20200;-79
2022/11/18 17:12:13;;;;;;;26.60;14.47;;;-2.50;1.00;;;;;;8374891;28;20203;-79
2022/11/18 17:16:19;;;;;;;26.53;13.77;;;-2.70;1.00;;;;;;8370029;28;20187;-80
2022/11/18 17:20:20;;;;;;;26.37;13.00;;;-3.00;1.00;;;;;;8371936;28;20186;-79
2022/11/18 17:24:22;;;;;;;23.53;13.20;;;-3.30;99.90;;;;;;8367996;28;20235;-78
2022/11/18 17:28:23;;;;;;;27.63;12.80;;;-3.50;99.90;;;;;;8366628;28;20244;-78
2022/11/18 17:32:24;;;;;;;22.43;11.53;;;-3.70;99.90;;;;;;8371855;28;20188;-79
2022/11/18 17:36:26;;;;;;;23.23;12.07;;;-3.80;1.00;;;;;;8376458;28;20181;-78
2022/11/18 17:40:27;;;;;;;20.47;10.73;;;-3.80;99.90;;;;;;8380163;28;20185;-78
2022/11/18 17:44:28;;;;;;;17.90;9.67;;;-3.80;1.00;;;;;;8380199;28;20189;-78
2022/11/18 17:48:30;;;;;;;16.30;9.67;;;-3.60;99.90;;;;;;8371959;28;20237;-79
2022/11/18 17:52:31;;;;;;;17.77;10.10;;;-3.50;99.90;;;;;;8381156;28;20272;-78
2022/11/18 17:56:32;;;;;;;20.10;11.37;;;-3.40;1.00;;;;;;8379637;28;20201;-79
2022/11/18 18:00:34;;;;;;;23.97;13.57;;;-3.30;4.70;;;;;;8376833;28;20217;-79
2022/11/18 18:04:35;;;;;;;37.23;18.23;;;-3.20;15.10;;;;;;8376753;28;20188;-80
2022/11/18 18:08:37;;;;;;;34.17;18.83;;;-3.20;99.90;;;;;;8383466;28;20210;-78
2022/11/18 18:16:59;;;;;;;34.73;15.60;;;-3.40;1.00;;;;;;8371586;28;20183;-79
2022/11/18 18:21:01;;;;;;;36.73;17.43;;;-3.50;1.00;;;;;;8378132;28;20260;-79
2022/11/18 18:25:02;;;;;;;27.00;14.27;;;-3.50;99.90;;;;;;8368330;28;20183;-79
2022/11/18 18:29:03;;;;;;;30.97;16.30;;;-3.60;1.00;;;;;;8382678;28;20209;-79
2022/11/18 18:33:04;;;;;;;27.80;13.63;;;-3.60;99.90;;;;;;8374554;28;20180;-79
2022/11/18 18:37:05;;;;;;;29.33;15.00;;;-3.60;1.00;;;;;;8370916;28;20213;-79
2022/11/18 18:41:11;;;;;;;25.40;13.30;;;-3.60;99.90;;;;;;8371998;28;20231;-79
2022/11/18 18:49:31;;;;;;;25.40;14.23;;;-3.60;1.00;;;;;;8376236;28;20220;-80
2022/11/18 18:53:33;;;;;;;30.00;15.37;;;-3.60;1.00;;;;;;8373325;28;20260;-80
2022/11/18 18:57:34;;;;;;;37.60;18.40;;;-3.60;1.00;;;;;;8371436;28;20220;-81
2022/11/18 19:01:35;;;;;;;38.97;21.37;;;-3.50;99.90;;;;;;8371326;28;20188;-80
2022/11/18 19:05:36;;;;;;;37.63;19.50;;;-3.40;1.00;;;;;;8371559;28;20219;-79
2022/11/18 19:09:37;;;;;;;36.03;17.07;;;-3.30;99.90;;;;;;8372650;28;20268;-79
2022/11/18 19:13:38;;;;;;;28.87;17.17;;;-3.20;99.90;;;;;;8372176;28;20192;-81
2022/11/18 19:17:40;;;;;;;32.00;17.10;;;-3.10;42.20;;;;;;8378160;28;20177;-80
2022/11/18 19:21:40;;;;;;;28.13;15.33;;;-3.10;1.00;;;;;;8381218;28;20177;-81
2022/11/18 19:25:42;;;;;;;28.87;14.40;;;-2.90;99.90;;;;;;8380520;28;20209;-81
2022/11/18 19:29:43;;;;;;;25.87;15.23;;;-2.90;99.90;;;;;;8374968;28;20425;-81
2022/11/18 19:33:45;;;;;;;40.10;22.47;;;-2.80;99.90;;;;;;8373761;28;20290;-80
2022/11/18 19:37:46;;;;;;;36.80;20.40;;;-2.70;99.90;;;;;;8360424;28;20186;-80
2022/11/18 19:41:47;;;;;;;36.83;17.50;;;-2.70;99.90;;;;;;8371501;28;20197;-78
2022/11/18 19:45:52;;;;;;;29.00;16.50;;;-2.60;99.90;;;;;;8374814;28;20179;-79
2022/11/18 19:49:53;;;;;;;27.80;15.83;;;-2.60;99.90;;;;;;8371140;28;20302;-80
2022/11/18 19:53:54;;;;;;;27.37;15.33;;;-2.60;1.00;;;;;;8378105;28;20200;-80
2022/11/18 19:57:55;;;;;;;32.73;17.10;;;-2.50;99.90;;;;;;8375074;28;20284;-79
2022/11/18 20:01:56;;;;;;;34.97;18.10;;;-2.50;99.90;;;;;;8364322;28;20191;-79
2022/11/18 20:06:00;;;;;;;33.40;17.97;;;-2.50;1.00;;;;;;8368677;28;20190;-79
2022/11/18 20:10:01;;;;;;;32.50;18.10;;;-2.50;1.00;;;;;;8363600;28;20608;-80
2022/11/18 20:14:03;;;;;;;31.73;17.03;;;-2.40;99.90;;;;;;8371723;28;20189;-80
2022/11/18 20:18:04;;;;;;;30.57;16.27;;;-2.40;99.90;;;;;;8365293;28;20269;-80
2022/11/18 20:22:05;;;;;;;37.80;19.23;;;-2.50;99.90;;;;;;8368799;28;20198;-80
2022/11/18 20:26:08;;;;;;;33.23;18.43;;;-2.50;99.90;;;;;;8374878;28;20179;-80
2022/11/18 20:30:10;;;;;;;33.57;18.90;;;-2.50;99.90;;;;;;8367707;28;20211;-80
2022/11/18 20:34:13;;;;;;;29.07;16.87;;;-2.60;99.90;;;;;;8371056;28;20206;-79
2022/11/18 20:38:14;;;;;;;25.67;14.87;;;-2.70;99.90;;;;;;8368105;28;20201;-80
2022/11/18 20:46:34;;;;;;;29.40;14.27;;;-2.80;1.00;;;;;;8371670;28;20223;-79
2022/11/18 20:50:37;;;;;;;27.20;13.97;;;-2.90;16.60;;;;;;8371370;28;20217;-80
2022/11/18 20:54:38;;;;;;;32.87;17.33;;;-2.90;5.00;;;;;;8374389;28;20220;-79
2022/11/18 20:58:39;;;;;;;23.37;13.60;;;-3.00;1.00;;;;;;8368332;28;20255;-80
2022/11/18 21:02:40;;;;;;;22.93;12.87;;;-3.10;99.90;;;;;;8371349;28;20185;-79
2022/11/18 21:06:40;;;;;;;23.43;13.47;;;-3.10;1.00;;;;;;8372152;28;20199;-79
2022/11/18 21:10:42;;;;;;;22.37;11.90;;;-3.20;99.90;;;;;;8369820;28;20220;-78
2022/11/18 21:14:43;;;;;;;20.00;11.90;;;-3.20;99.90;;;;;;8374621;28;20186;-78
2022/11/18 21:18:44;;;;;;;28.97;14.03;;;-3.20;99.90;;;;;;8373395;28;20296;-79